sensor_id;sensor_type;location;lat;lon;timestamp;P1;durP1;ratioP1;P2;durP2;ratioP2
75209;SDS011;63796;53.136;14.882;2023-02-23T00:01:54;17.40;;;9.00;;
75209;SDS011;63796;53.136;14.882;2023-02-23T00:04:23;20.00;;;9.20;;
75209;SDS011;63796;53.136;14.882;2023-02-23T00:06:51;17.10;;;8.70;;
75209;SDS011;63796;53.136;14.882;2023-02-23T00:09:19;17.20;;;7.70;;
75209;SDS011;63796;53.136;14.882;2023-02-23T00:11:55;18.80;;;8.50;;
75209;SDS011;63796;53.136;14.882;2023-02-23T00:14:25;20.50;;;9.00;;
75209;SDS011;63796;53.136;14.882;2023-02-23T00:16:54;24.40;;;9.70;;
75209;SDS011;63796;53.136;14.882;2023-02-23T00:19:22;18.00;;;8.40;;
75209;SDS011;63796;53.136;14.882;2023-02-23T00:21:52;18.50;;;9.00;;
75209;SDS011;63796;53.136;14.882;2023-02-23T00:24:20;20.30;;;9.10;;
75209;SDS011;63796;53.136;14.882;2023-02-23T00:26:48;17.00;;;7.90;;
75209;SDS011;63796;53.136;14.882;2023-02-23T00:29:20;16.90;;;8.70;;
75209;SDS011;63796;53.136;14.882;2023-02-23T00:31:49;18.30;;;8.90;;
75209;SDS011;63796;53.136;14.882;2023-02-23T00:34:18;23.40;;;10.40;;
75209;SDS011;63796;53.136;14.882;2023-02-23T00:36:52;19.90;;;9.40;;
75209;SDS011;63796;53.136;14.882;2023-02-23T00:39:22;17.30;;;8.50;;
75209;SDS011;63796;53.136;14.882;2023-02-23T00:41:53;22.20;;;10.20;;
75209;SDS011;63796;53.136;14.882;2023-02-23T00:44:23;19.70;;;8.90;;
75209;SDS011;63796;53.136;14.882;2023-02-23T00:46:51;22.40;;;9.60;;
75209;SDS011;63796;53.136;14.882;2023-02-23T00:49:20;18.70;;;8.80;;
75209;SDS011;63796;53.136;14.882;2023-02-23T00:51:47;19.00;;;9.00;;
75209;SDS011;63796;53.136;14.882;2023-02-23T00:54:16;21.20;;;10.00;;
75209;SDS011;63796;53.136;14.882;2023-02-23T00:56:44;19.30;;;8.50;;
75209;SDS011;63796;53.136;14.882;2023-02-23T00:59:12;20.60;;;9.00;;
75209;SDS011;63796;53.136;14.882;2023-02-23T01:01:40;21.80;;;9.50;;
75209;SDS011;63796;53.136;14.882;2023-02-23T01:04:10;19.60;;;9.40;;
75209;SDS011;63796;53.136;14.882;2023-02-23T01:06:39;20.80;;;9.00;;
75209;SDS011;63796;53.136;14.882;2023-02-23T01:09:10;21.10;;;8.50;;
75209;SDS011;63796;53.136;14.882;2023-02-23T01:11:39;31.10;;;10.10;;
75209;SDS011;63796;53.136;14.882;2023-02-23T01:14:13;21.20;;;10.10;;
75209;SDS011;63796;53.136;14.882;2023-02-23T01:16:40;25.50;;;10.00;;
75209;SDS011;63796;53.136;14.882;2023-02-23T01:19:09;18.40;;;8.90;;
75209;SDS011;63796;53.136;14.882;2023-02-23T01:21:39;24.10;;;9.00;;
75209;SDS011;63796;53.136;14.882;2023-02-23T01:24:09;22.30;;;9.00;;
75209;SDS011;63796;53.136;14.882;2023-02-23T01:26:39;17.90;;;8.40;;
75209;SDS011;63796;53.136;14.882;2023-02-23T01:29:09;21.50;;;9.70;;
75209;SDS011;63796;53.136;14.882;2023-02-23T01:31:39;20.40;;;9.20;;
75209;SDS011;63796;53.136;14.882;2023-02-23T01:34:10;21.10;;;9.40;;
75209;SDS011;63796;53.136;14.882;2023-02-23T01:36:39;24.20;;;9.50;;
75209;SDS011;63796;53.136;14.882;2023-02-23T01:39:09;20.10;;;9.30;;
75209;SDS011;63796;53.136;14.882;2023-02-23T01:41:38;20.80;;;9.60;;
75209;SDS011;63796;53.136;14.882;2023-02-23T01:46:43;19.00;;;8.80;;
75209;SDS011;63796;53.136;14.882;2023-02-23T01:49:25;20.00;;;9.20;;
75209;SDS011;63796;53.136;14.882;2023-02-23T01:51:58;19.00;;;9.00;;
75209;SDS011;63796;53.136;14.882;2023-02-23T01:54:31;23.70;;;9.20;;
75209;SDS011;63796;53.136;14.882;2023-02-23T01:57:00;18.10;;;8.50;;
75209;SDS011;63796;53.136;14.882;2023-02-23T01:59:34;18.20;;;8.30;;
75209;SDS011;63796;53.136;14.882;2023-02-23T02:02:04;22.50;;;9.70;;
75209;SDS011;63796;53.136;14.882;2023-02-23T02:04:36;20.60;;;9.60;;
75209;SDS011;63796;53.136;14.882;2023-02-23T02:07:12;21.90;;;9.40;;
75209;SDS011;63796;53.136;14.882;2023-02-23T02:09:43;18.50;;;8.60;;
75209;SDS011;63796;53.136;14.882;2023-02-23T02:12:31;17.90;;;8.60;;
75209;SDS011;63796;53.136;14.882;2023-02-23T02:14:59;21.60;;;8.80;;
75209;SDS011;63796;53.136;14.882;2023-02-23T02:25:52;23.90;;;9.30;;
75209;SDS011;63796;53.136;14.882;2023-02-23T02:28:48;25.70;;;9.50;;
75209;SDS011;63796;53.136;14.882;2023-02-23T02:36:53;22.80;;;9.50;;
75209;SDS011;63796;53.136;14.882;2023-02-23T02:39:39;23.60;;;10.00;;
75209;SDS011;63796;53.136;14.882;2023-02-23T02:42:32;23.90;;;10.50;;
75209;SDS011;63796;53.136;14.882;2023-02-23T02:53:08;18.90;;;8.80;;
75209;SDS011;63796;53.136;14.882;2023-02-23T02:55:39;21.00;;;8.70;;
75209;SDS011;63796;53.136;14.882;2023-02-23T02:58:11;18.40;;;8.80;;
75209;SDS011;63796;53.136;14.882;2023-02-23T03:00:45;21.30;;;9.50;;
75209;SDS011;63796;53.136;14.882;2023-02-23T03:03:45;21.50;;;8.90;;
75209;SDS011;63796;53.136;14.882;2023-02-23T03:06:38;22.40;;;9.10;;
75209;SDS011;63796;53.136;14.882;2023-02-23T03:09:46;20.50;;;8.90;;
75209;SDS011;63796;53.136;14.882;2023-02-23T03:12:41;19.00;;;8.50;;
75209;SDS011;63796;53.136;14.882;2023-02-23T03:21:48;16.80;;;7.50;;
75209;SDS011;63796;53.136;14.882;2023-02-23T03:30:42;24.50;;;9.70;;
75209;SDS011;63796;53.136;14.882;2023-02-23T03:36:46;17.70;;;8.10;;
75209;SDS011;63796;53.136;14.882;2023-02-23T03:39:41;21.00;;;9.30;;
75209;SDS011;63796;53.136;14.882;2023-02-23T03:42:31;21.20;;;8.60;;
75209;SDS011;63796;53.136;14.882;2023-02-23T03:45:20;23.80;;;8.30;;
75209;SDS011;63796;53.136;14.882;2023-02-23T03:48:10;18.80;;;9.10;;
75209;SDS011;63796;53.136;14.882;2023-02-23T03:51:01;22.40;;;9.20;;
75209;SDS011;63796;53.136;14.882;2023-02-23T03:54:01;21.80;;;8.80;;
75209;SDS011;63796;53.136;14.882;2023-02-23T03:56:50;23.60;;;10.40;;
75209;SDS011;63796;53.136;14.882;2023-02-23T03:59:43;22.60;;;9.30;;
75209;SDS011;63796;53.136;14.882;2023-02-23T04:02:33;23.00;;;9.10;;
75209;SDS011;63796;53.136;14.882;2023-02-23T04:05:21;23.50;;;9.20;;
75209;SDS011;63796;53.136;14.882;2023-02-23T04:08:11;19.10;;;8.90;;
75209;SDS011;63796;53.136;14.882;2023-02-23T04:11:07;25.30;;;9.60;;
75209;SDS011;63796;53.136;14.882;2023-02-23T04:13:57;23.90;;;9.70;;
75209;SDS011;63796;53.136;14.882;2023-02-23T04:16:27;24.50;;;9.20;;
75209;SDS011;63796;53.136;14.882;2023-02-23T04:18:55;22.80;;;9.90;;
75209;SDS011;63796;53.136;14.882;2023-02-23T04:21:22;18.80;;;8.90;;
75209;SDS011;63796;53.136;14.882;2023-02-23T04:23:49;21.00;;;9.60;;
75209;SDS011;63796;53.136;14.882;2023-02-23T04:26:17;19.20;;;8.70;;
75209;SDS011;63796;53.136;14.882;2023-02-23T04:28:44;24.40;;;10.10;;
75209;SDS011;63796;53.136;14.882;2023-02-23T04:31:12;24.10;;;9.00;;
75209;SDS011;63796;53.136;14.882;2023-02-23T04:33:39;23.60;;;9.20;;
75209;SDS011;63796;53.136;14.882;2023-02-23T04:36:06;23.90;;;10.00;;
75209;SDS011;63796;53.136;14.882;2023-02-23T04:38:34;23.60;;;9.40;;
75209;SDS011;63796;53.136;14.882;2023-02-23T04:41:01;20.10;;;9.10;;
75209;SDS011;63796;53.136;14.882;2023-02-23T04:43:28;22.20;;;9.00;;
75209;SDS011;63796;53.136;14.882;2023-02-23T04:45:55;17.70;;;9.00;;
75209;SDS011;63796;53.136;14.882;2023-02-23T04:48:23;22.40;;;9.80;;
75209;SDS011;63796;53.136;14.882;2023-02-23T04:50:54;18.40;;;9.00;;
75209;SDS011;63796;53.136;14.882;2023-02-23T04:53:21;20.60;;;8.90;;
75209;SDS011;63796;53.136;14.882;2023-02-23T04:55:48;22.50;;;8.60;;
75209;SDS011;63796;53.136;14.882;2023-02-23T04:58:16;28.50;;;9.60;;
75209;SDS011;63796;53.136;14.882;2023-02-23T05:00:43;24.80;;;9.80;;
75209;SDS011;63796;53.136;14.882;2023-02-23T05:03:10;29.70;;;9.70;;
75209;SDS011;63796;53.136;14.882;2023-02-23T05:05:38;19.90;;;8.20;;
75209;SDS011;63796;53.136;14.882;2023-02-23T05:08:05;25.80;;;8.70;;
75209;SDS011;63796;53.136;14.882;2023-02-23T05:10:33;24.60;;;10.30;;
75209;SDS011;63796;53.136;14.882;2023-02-23T05:13:00;21.00;;;10.00;;
75209;SDS011;63796;53.136;14.882;2023-02-23T05:15:28;21.70;;;8.30;;
75209;SDS011;63796;53.136;14.882;2023-02-23T05:17:55;23.20;;;9.30;;
75209;SDS011;63796;53.136;14.882;2023-02-23T05:20:22;22.80;;;9.50;;
75209;SDS011;63796;53.136;14.882;2023-02-23T05:22:49;26.00;;;10.50;;
75209;SDS011;63796;53.136;14.882;2023-02-23T05:25:16;22.80;;;10.30;;
75209;SDS011;63796;53.136;14.882;2023-02-23T05:27:44;21.20;;;8.80;;
75209;SDS011;63796;53.136;14.882;2023-02-23T05:30:11;25.90;;;9.10;;
75209;SDS011;63796;53.136;14.882;2023-02-23T05:32:39;21.90;;;8.90;;
75209;SDS011;63796;53.136;14.882;2023-02-23T05:35:07;24.40;;;9.70;;
75209;SDS011;63796;53.136;14.882;2023-02-23T05:37:35;22.30;;;8.90;;
75209;SDS011;63796;53.136;14.882;2023-02-23T05:40:03;24.30;;;9.30;;
75209;SDS011;63796;53.136;14.882;2023-02-23T05:42:31;20.60;;;8.80;;
75209;SDS011;63796;53.136;14.882;2023-02-23T05:44:58;19.80;;;8.70;;
75209;SDS011;63796;53.136;14.882;2023-02-23T05:47:25;22.00;;;9.10;;
75209;SDS011;63796;53.136;14.882;2023-02-23T05:49:53;20.70;;;9.50;;
75209;SDS011;63796;53.136;14.882;2023-02-23T05:52:20;20.80;;;9.20;;
75209;SDS011;63796;53.136;14.882;2023-02-23T05:54:47;21.60;;;8.40;;
75209;SDS011;63796;53.136;14.882;2023-02-23T05:57:15;24.80;;;9.80;;
75209;SDS011;63796;53.136;14.882;2023-02-23T05:59:42;23.80;;;9.90;;
75209;SDS011;63796;53.136;14.882;2023-02-23T06:02:10;21.40;;;9.10;;
75209;SDS011;63796;53.136;14.882;2023-02-23T06:04:37;22.00;;;9.20;;
75209;SDS011;63796;53.136;14.882;2023-02-23T06:07:04;19.10;;;8.80;;
75209;SDS011;63796;53.136;14.882;2023-02-23T06:09:31;23.80;;;10.00;;
75209;SDS011;63796;53.136;14.882;2023-02-23T06:11:59;23.60;;;10.70;;
75209;SDS011;63796;53.136;14.882;2023-02-23T06:14:26;23.80;;;10.30;;
75209;SDS011;63796;53.136;14.882;2023-02-23T06:16:54;23.60;;;9.40;;
75209;SDS011;63796;53.136;14.882;2023-02-23T06:19:21;21.70;;;9.40;;
75209;SDS011;63796;53.136;14.882;2023-02-23T06:21:49;23.30;;;9.50;;
75209;SDS011;63796;53.136;14.882;2023-02-23T06:24:16;24.60;;;9.90;;
75209;SDS011;63796;53.136;14.882;2023-02-23T06:26:44;25.50;;;10.60;;
75209;SDS011;63796;53.136;14.882;2023-02-23T06:29:11;24.90;;;10.00;;
75209;SDS011;63796;53.136;14.882;2023-02-23T06:31:39;25.20;;;10.40;;
75209;SDS011;63796;53.136;14.882;2023-02-23T06:34:07;26.20;;;10.80;;
75209;SDS011;63796;53.136;14.882;2023-02-23T06:36:35;20.60;;;9.60;;
75209;SDS011;63796;53.136;14.882;2023-02-23T06:39:03;21.70;;;10.00;;
75209;SDS011;63796;53.136;14.882;2023-02-23T06:41:31;27.80;;;9.60;;
75209;SDS011;63796;53.136;14.882;2023-02-23T06:43:58;21.30;;;9.60;;
75209;SDS011;63796;53.136;14.882;2023-02-23T06:46:26;23.30;;;10.10;;
75209;SDS011;63796;53.136;14.882;2023-02-23T06:48:55;24.90;;;10.80;;
75209;SDS011;63796;53.136;14.882;2023-02-23T06:51:22;25.80;;;10.00;;
75209;SDS011;63796;53.136;14.882;2023-02-23T06:53:50;21.00;;;9.10;;
75209;SDS011;63796;53.136;14.882;2023-02-23T06:56:19;22.60;;;9.70;;
75209;SDS011;63796;53.136;14.882;2023-02-23T06:58:47;25.00;;;10.20;;
75209;SDS011;63796;53.136;14.882;2023-02-23T07:01:15;23.20;;;10.40;;
75209;SDS011;63796;53.136;14.882;2023-02-23T07:03:43;25.60;;;10.40;;
75209;SDS011;63796;53.136;14.882;2023-02-23T07:06:10;20.90;;;9.80;;
75209;SDS011;63796;53.136;14.882;2023-02-23T07:08:37;25.80;;;10.20;;
75209;SDS011;63796;53.136;14.882;2023-02-23T07:11:13;23.90;;;10.80;;
75209;SDS011;63796;53.136;14.882;2023-02-23T07:13:41;22.90;;;10.60;;
75209;SDS011;63796;53.136;14.882;2023-02-23T07:16:08;25.70;;;10.40;;
75209;SDS011;63796;53.136;14.882;2023-02-23T07:18:37;22.90;;;10.10;;
75209;SDS011;63796;53.136;14.882;2023-02-23T07:21:04;23.70;;;9.90;;
75209;SDS011;63796;53.136;14.882;2023-02-23T07:23:32;25.40;;;10.60;;
75209;SDS011;63796;53.136;14.882;2023-02-23T07:26:00;25.90;;;10.70;;
75209;SDS011;63796;53.136;14.882;2023-02-23T07:28:27;23.10;;;10.40;;
75209;SDS011;63796;53.136;14.882;2023-02-23T07:30:57;28.60;;;10.80;;
75209;SDS011;63796;53.136;14.882;2023-02-23T07:33:24;28.40;;;10.80;;
75209;SDS011;63796;53.136;14.882;2023-02-23T07:35:52;25.20;;;10.90;;
75209;SDS011;63796;53.136;14.882;2023-02-23T07:38:19;24.90;;;10.60;;
75209;SDS011;63796;53.136;14.882;2023-02-23T07:40:49;27.70;;;10.60;;
75209;SDS011;63796;53.136;14.882;2023-02-23T07:43:16;24.20;;;10.70;;
75209;SDS011;63796;53.136;14.882;2023-02-23T07:45:43;30.60;;;11.50;;
75209;SDS011;63796;53.136;14.882;2023-02-23T07:48:12;23.40;;;11.10;;
75209;SDS011;63796;53.136;14.882;2023-02-23T07:50:40;23.40;;;11.60;;
75209;SDS011;63796;53.136;14.882;2023-02-23T07:53:08;24.20;;;11.10;;
75209;SDS011;63796;53.136;14.882;2023-02-23T07:55:37;25.40;;;10.80;;
75209;SDS011;63796;53.136;14.882;2023-02-23T07:58:06;25.20;;;11.60;;
75209;SDS011;63796;53.136;14.882;2023-02-23T08:00:34;24.20;;;11.50;;
75209;SDS011;63796;53.136;14.882;2023-02-23T08:03:06;28.00;;;12.40;;
75209;SDS011;63796;53.136;14.882;2023-02-23T08:05:34;27.30;;;11.90;;
75209;SDS011;63796;53.136;14.882;2023-02-23T08:08:02;28.30;;;11.80;;
75209;SDS011;63796;53.136;14.882;2023-02-23T08:10:29;29.70;;;13.00;;
75209;SDS011;63796;53.136;14.882;2023-02-23T08:12:57;26.00;;;11.60;;
75209;SDS011;63796;53.136;14.882;2023-02-23T08:15:26;26.70;;;11.70;;
75209;SDS011;63796;53.136;14.882;2023-02-23T08:17:53;25.00;;;12.90;;
75209;SDS011;63796;53.136;14.882;2023-02-23T08:20:20;25.30;;;11.70;;
75209;SDS011;63796;53.136;14.882;2023-02-23T08:22:52;26.50;;;11.80;;
75209;SDS011;63796;53.136;14.882;2023-02-23T08:25:20;30.00;;;12.50;;
75209;SDS011;63796;53.136;14.882;2023-02-23T08:27:48;25.00;;;12.60;;
75209;SDS011;63796;53.136;14.882;2023-02-23T08:30:21;23.00;;;11.40;;
75209;SDS011;63796;53.136;14.882;2023-02-23T08:32:49;22.20;;;11.80;;
75209;SDS011;63796;53.136;14.882;2023-02-23T08:35:17;31.40;;;13.10;;
75209;SDS011;63796;53.136;14.882;2023-02-23T08:37:46;24.40;;;12.20;;
75209;SDS011;63796;53.136;14.882;2023-02-23T08:40:14;26.60;;;12.20;;
75209;SDS011;63796;53.136;14.882;2023-02-23T08:42:46;26.70;;;12.70;;
75209;SDS011;63796;53.136;14.882;2023-02-23T08:45:20;27.70;;;12.90;;
75209;SDS011;63796;53.136;14.882;2023-02-23T08:47:47;28.10;;;12.50;;
75209;SDS011;63796;53.136;14.882;2023-02-23T08:50:14;26.10;;;13.10;;
75209;SDS011;63796;53.136;14.882;2023-02-23T08:52:42;28.10;;;13.10;;
75209;SDS011;63796;53.136;14.882;2023-02-23T08:55:09;26.40;;;13.20;;
75209;SDS011;63796;53.136;14.882;2023-02-23T08:57:37;24.50;;;12.70;;
75209;SDS011;63796;53.136;14.882;2023-02-23T09:00:05;25.80;;;12.50;;
75209;SDS011;63796;53.136;14.882;2023-02-23T09:02:40;26.70;;;13.30;;
75209;SDS011;63796;53.136;14.882;2023-02-23T09:05:08;29.30;;;13.40;;
75209;SDS011;63796;53.136;14.882;2023-02-23T09:07:37;26.70;;;14.30;;
75209;SDS011;63796;53.136;14.882;2023-02-23T09:10:06;27.80;;;13.50;;
75209;SDS011;63796;53.136;14.882;2023-02-23T09:12:34;25.90;;;12.50;;
75209;SDS011;63796;53.136;14.882;2023-02-23T09:15:01;27.50;;;14.10;;
75209;SDS011;63796;53.136;14.882;2023-02-23T09:17:28;27.10;;;13.50;;
75209;SDS011;63796;53.136;14.882;2023-02-23T09:19:55;32.50;;;13.50;;
75209;SDS011;63796;53.136;14.882;2023-02-23T09:22:23;31.90;;;14.30;;
75209;SDS011;63796;53.136;14.882;2023-02-23T09:24:51;34.50;;;14.00;;
75209;SDS011;63796;53.136;14.882;2023-02-23T09:27:19;32.40;;;13.60;;
75209;SDS011;63796;53.136;14.882;2023-02-23T09:29:46;24.50;;;12.90;;
75209;SDS011;63796;53.136;14.882;2023-02-23T09:32:13;29.10;;;14.90;;
75209;SDS011;63796;53.136;14.882;2023-02-23T09:34:40;29.40;;;13.80;;
75209;SDS011;63796;53.136;14.882;2023-02-23T09:37:08;26.90;;;14.80;;
75209;SDS011;63796;53.136;14.882;2023-02-23T09:39:35;25.80;;;14.20;;
75209;SDS011;63796;53.136;14.882;2023-02-23T09:50:27;28.50;;;15.60;;
75209;SDS011;63796;53.136;14.882;2023-02-23T09:53:00;25.30;;;14.50;;
75209;SDS011;63796;53.136;14.882;2023-02-23T09:55:30;27.60;;;14.20;;
75209;SDS011;63796;53.136;14.882;2023-02-23T09:58:05;28.90;;;16.40;;
75209;SDS011;63796;53.136;14.882;2023-02-23T10:00:41;27.40;;;15.00;;
75209;SDS011;63796;53.136;14.882;2023-02-23T10:03:18;28.90;;;15.20;;
75209;SDS011;63796;53.136;14.882;2023-02-23T10:05:55;29.30;;;15.30;;
75209;SDS011;63796;53.136;14.882;2023-02-23T10:08:47;29.40;;;15.10;;
75209;SDS011;63796;53.136;14.882;2023-02-23T10:13:56;28.10;;;15.50;;
75209;SDS011;63796;53.136;14.882;2023-02-23T10:16:40;28.10;;;14.60;;
75209;SDS011;63796;53.136;14.882;2023-02-23T10:19:36;26.20;;;14.00;;
75209;SDS011;63796;53.136;14.882;2023-02-23T10:22:09;32.10;;;16.70;;
75209;SDS011;63796;53.136;14.882;2023-02-23T10:24:42;30.00;;;15.60;;
75209;SDS011;63796;53.136;14.882;2023-02-23T10:27:16;27.80;;;16.60;;
75209;SDS011;63796;53.136;14.882;2023-02-23T10:29:48;30.30;;;15.80;;
75209;SDS011;63796;53.136;14.882;2023-02-23T10:32:30;33.30;;;15.90;;
75209;SDS011;63796;53.136;14.882;2023-02-23T10:34:59;28.50;;;15.30;;
75209;SDS011;63796;53.136;14.882;2023-02-23T10:37:26;34.90;;;16.20;;
75209;SDS011;63796;53.136;14.882;2023-02-23T10:39:54;30.80;;;15.80;;
75209;SDS011;63796;53.136;14.882;2023-02-23T10:42:23;31.50;;;15.30;;
75209;SDS011;63796;53.136;14.882;2023-02-23T10:44:56;29.90;;;16.40;;
75209;SDS011;63796;53.136;14.882;2023-02-23T10:47:27;30.60;;;16.50;;
75209;SDS011;63796;53.136;14.882;2023-02-23T10:49:56;32.80;;;17.00;;
75209;SDS011;63796;53.136;14.882;2023-02-23T10:52:41;26.90;;;15.60;;
75209;SDS011;63796;53.136;14.882;2023-02-23T10:55:39;31.70;;;17.30;;
75209;SDS011;63796;53.136;14.882;2023-02-23T10:58:19;30.90;;;16.00;;
75209;SDS011;63796;53.136;14.882;2023-02-23T14:17:58;92.70;;;27.40;;
75209;SDS011;63796;53.136;14.882;2023-02-23T14:25:50;97.00;;;36.60;;
75209;SDS011;63796;53.136;14.882;2023-02-23T14:31:01;107.20;;;40.80;;
75209;SDS011;63796;53.136;14.882;2023-02-23T14:38:58;285.20;;;90.20;;
75209;SDS011;63796;53.136;14.882;2023-02-23T14:44:28;110.80;;;37.20;;
75209;SDS011;63796;53.136;14.882;2023-02-23T14:49:30;81.60;;;32.60;;
75209;SDS011;63796;53.136;14.882;2023-02-23T14:52:12;328.70;;;101.30;;
75209;SDS011;63796;53.136;14.882;2023-02-23T14:54:40;365.60;;;99.10;;
75209;SDS011;63796;53.136;14.882;2023-02-23T14:57:23;141.70;;;45.60;;
75209;SDS011;63796;53.136;14.882;2023-02-23T15:00:02;79.90;;;31.10;;
75209;SDS011;63796;53.136;14.882;2023-02-23T15:02:33;73.60;;;31.00;;
75209;SDS011;63796;53.136;14.882;2023-02-23T15:05:16;105.50;;;34.60;;
75209;SDS011;63796;53.136;14.882;2023-02-23T15:07:43;165.50;;;42.80;;
75209;SDS011;63796;53.136;14.882;2023-02-23T15:10:19;208.00;;;54.10;;
75209;SDS011;63796;53.136;14.882;2023-02-23T15:12:48;93.80;;;30.60;;
75209;SDS011;63796;53.136;14.882;2023-02-23T15:15:19;158.50;;;46.40;;
75209;SDS011;63796;53.136;14.882;2023-02-23T15:17:49;129.10;;;39.60;;
75209;SDS011;63796;53.136;14.882;2023-02-23T15:20:20;357.20;;;97.30;;
75209;SDS011;63796;53.136;14.882;2023-02-23T15:22:55;283.50;;;89.90;;
75209;SDS011;63796;53.136;14.882;2023-02-23T15:25:39;254.50;;;84.90;;
75209;SDS011;63796;53.136;14.882;2023-02-23T15:28:19;323.00;;;100.60;;
75209;SDS011;63796;53.136;14.882;2023-02-23T15:30:47;256.40;;;78.00;;
75209;SDS011;63796;53.136;14.882;2023-02-23T15:33:17;92.60;;;37.00;;
75209;SDS011;63796;53.136;14.882;2023-02-23T15:36:21;234.60;;;77.50;;
75209;SDS011;63796;53.136;14.882;2023-02-23T15:38:54;130.70;;;47.60;;
75209;SDS011;63796;53.136;14.882;2023-02-23T15:41:29;84.10;;;31.40;;
75209;SDS011;63796;53.136;14.882;2023-02-23T15:46:53;239.70;;;76.10;;
75209;SDS011;63796;53.136;14.882;2023-02-23T15:49:24;382.10;;;115.70;;
75209;SDS011;63796;53.136;14.882;2023-02-23T15:52:07;373.20;;;108.80;;
75209;SDS011;63796;53.136;14.882;2023-02-23T15:55:01;458.50;;;136.50;;
75209;SDS011;63796;53.136;14.882;2023-02-23T15:57:42;333.40;;;102.30;;
75209;SDS011;63796;53.136;14.882;2023-02-23T16:00:36;313.60;;;93.30;;
75209;SDS011;63796;53.136;14.882;2023-02-23T16:03:05;273.80;;;87.40;;
75209;SDS011;63796;53.136;14.882;2023-02-23T16:05:34;349.00;;;112.20;;
75209;SDS011;63796;53.136;14.882;2023-02-23T16:08:19;277.60;;;95.50;;
75209;SDS011;63796;53.136;14.882;2023-02-23T16:10:53;139.00;;;50.50;;
75209;SDS011;63796;53.136;14.882;2023-02-23T16:13:23;77.00;;;31.30;;
75209;SDS011;63796;53.136;14.882;2023-02-23T16:15:52;107.90;;;42.60;;
75209;SDS011;63796;53.136;14.882;2023-02-23T16:18:41;169.40;;;63.00;;
75209;SDS011;63796;53.136;14.882;2023-02-23T16:21:14;144.30;;;54.30;;
75209;SDS011;63796;53.136;14.882;2023-02-23T16:23:45;212.80;;;76.80;;
75209;SDS011;63796;53.136;14.882;2023-02-23T16:26:21;213.10;;;67.70;;
75209;SDS011;63796;53.136;14.882;2023-02-23T16:29:00;142.70;;;49.80;;
75209;SDS011;63796;53.136;14.882;2023-02-23T16:31:46;641.30;;;184.90;;
75209;SDS011;63796;53.136;14.882;2023-02-23T16:37:14;1189.10;;;277.40;;
75209;SDS011;63796;53.136;14.882;2023-02-23T16:39:44;405.30;;;98.40;;
75209;SDS011;63796;53.136;14.882;2023-02-23T16:42:32;197.60;;;59.70;;
75209;SDS011;63796;53.136;14.882;2023-02-23T16:45:00;279.60;;;74.30;;
75209;SDS011;63796;53.136;14.882;2023-02-23T16:47:32;204.60;;;58.40;;
75209;SDS011;63796;53.136;14.882;2023-02-23T16:52:49;70.50;;;28.30;;
75209;SDS011;63796;53.136;14.882;2023-02-23T16:55:19;52.20;;;22.90;;
75209;SDS011;63796;53.136;14.882;2023-02-23T16:58:02;51.40;;;21.50;;
75209;SDS011;63796;53.136;14.882;2023-02-23T17:00:31;42.30;;;18.60;;
75209;SDS011;63796;53.136;14.882;2023-02-23T17:02:59;39.00;;;18.40;;
75209;SDS011;63796;53.136;14.882;2023-02-23T17:05:28;41.90;;;18.00;;
75209;SDS011;63796;53.136;14.882;2023-02-23T17:07:56;41.00;;;19.00;;
75209;SDS011;63796;53.136;14.882;2023-02-23T17:10:46;36.60;;;17.30;;
75209;SDS011;63796;53.136;14.882;2023-02-23T17:13:19;40.40;;;18.20;;
75209;SDS011;63796;53.136;14.882;2023-02-23T17:15:48;35.70;;;17.30;;
75209;SDS011;63796;53.136;14.882;2023-02-23T17:18:21;38.30;;;17.30;;
75209;SDS011;63796;53.136;14.882;2023-02-23T17:20:51;38.20;;;18.60;;
75209;SDS011;63796;53.136;14.882;2023-02-23T17:23:20;42.10;;;18.00;;
75209;SDS011;63796;53.136;14.882;2023-02-23T17:25:48;37.30;;;16.00;;
75209;SDS011;63796;53.136;14.882;2023-02-23T17:28:15;35.50;;;16.50;;
75209;SDS011;63796;53.136;14.882;2023-02-23T17:30:42;42.50;;;18.20;;
75209;SDS011;63796;53.136;14.882;2023-02-23T17:33:11;107.10;;;38.20;;
75209;SDS011;63796;53.136;14.882;2023-02-23T17:35:38;74.40;;;27.70;;
75209;SDS011;63796;53.136;14.882;2023-02-23T17:38:06;43.50;;;19.10;;
75209;SDS011;63796;53.136;14.882;2023-02-23T17:40:34;46.10;;;20.20;;
75209;SDS011;63796;53.136;14.882;2023-02-23T17:43:04;39.40;;;18.20;;
75209;SDS011;63796;53.136;14.882;2023-02-23T17:45:33;134.60;;;52.70;;
75209;SDS011;63796;53.136;14.882;2023-02-23T17:48:01;51.70;;;23.80;;
75209;SDS011;63796;53.136;14.882;2023-02-23T17:50:28;68.40;;;28.60;;
75209;SDS011;63796;53.136;14.882;2023-02-23T17:52:56;42.90;;;20.30;;
75209;SDS011;63796;53.136;14.882;2023-02-23T17:55:23;69.30;;;28.50;;
75209;SDS011;63796;53.136;14.882;2023-02-23T17:57:51;72.90;;;30.20;;
75209;SDS011;63796;53.136;14.882;2023-02-23T18:00:19;80.60;;;38.70;;
75209;SDS011;63796;53.136;14.882;2023-02-23T18:02:46;76.80;;;30.50;;
75209;SDS011;63796;53.136;14.882;2023-02-23T18:05:14;78.30;;;33.10;;
75209;SDS011;63796;53.136;14.882;2023-02-23T18:07:42;296.90;;;128.10;;
75209;SDS011;63796;53.136;14.882;2023-02-23T18:10:12;150.00;;;62.60;;
75209;SDS011;63796;53.136;14.882;2023-02-23T18:12:40;147.20;;;58.00;;
75209;SDS011;63796;53.136;14.882;2023-02-23T18:15:08;236.60;;;104.80;;
75209;SDS011;63796;53.136;14.882;2023-02-23T18:17:35;183.90;;;72.80;;
75209;SDS011;63796;53.136;14.882;2023-02-23T18:20:04;202.50;;;77.70;;
75209;SDS011;63796;53.136;14.882;2023-02-23T18:22:32;182.20;;;72.70;;
75209;SDS011;63796;53.136;14.882;2023-02-23T18:24:59;178.90;;;82.20;;
75209;SDS011;63796;53.136;14.882;2023-02-23T18:27:26;136.50;;;61.40;;
75209;SDS011;63796;53.136;14.882;2023-02-23T18:29:53;94.30;;;45.80;;
75209;SDS011;63796;53.136;14.882;2023-02-23T18:32:21;74.70;;;38.90;;
75209;SDS011;63796;53.136;14.882;2023-02-23T18:34:48;101.90;;;48.10;;
75209;SDS011;63796;53.136;14.882;2023-02-23T18:37:17;154.60;;;69.10;;
75209;SDS011;63796;53.136;14.882;2023-02-23T18:39:52;197.20;;;87.80;;
75209;SDS011;63796;53.136;14.882;2023-02-23T18:42:20;161.50;;;67.20;;
75209;SDS011;63796;53.136;14.882;2023-02-23T18:44:47;192.10;;;74.10;;
75209;SDS011;63796;53.136;14.882;2023-02-23T18:47:14;225.00;;;80.70;;
75209;SDS011;63796;53.136;14.882;2023-02-23T18:49:42;200.50;;;74.20;;
75209;SDS011;63796;53.136;14.882;2023-02-23T18:52:09;162.30;;;59.20;;
75209;SDS011;63796;53.136;14.882;2023-02-23T18:54:38;171.40;;;60.70;;
75209;SDS011;63796;53.136;14.882;2023-02-23T18:57:06;170.80;;;63.20;;
75209;SDS011;63796;53.136;14.882;2023-02-23T18:59:33;134.00;;;54.30;;
75209;SDS011;63796;53.136;14.882;2023-02-23T19:02:01;131.90;;;53.90;;
75209;SDS011;63796;53.136;14.882;2023-02-23T19:04:28;128.80;;;54.70;;
75209;SDS011;63796;53.136;14.882;2023-02-23T19:06:55;95.00;;;40.00;;
75209;SDS011;63796;53.136;14.882;2023-02-23T19:09:22;96.90;;;44.10;;
75209;SDS011;63796;53.136;14.882;2023-02-23T19:11:49;95.10;;;40.70;;
75209;SDS011;63796;53.136;14.882;2023-02-23T19:14:18;99.20;;;41.10;;